sensor_id;sensor_type;location;lat;lon;timestamp;temperature;humidity
9808;DHT22;4943;52.550;13.462;2023-06-10T00:00:01;19.70;94.00
9808;DHT22;4943;52.550;13.462;2023-06-10T00:02:32;19.70;93.90
9808;DHT22;4943;52.550;13.462;2023-06-10T00:05:00;19.70;94.10
9808;DHT22;4943;52.550;13.462;2023-06-10T00:07:28;19.60;94.20
9808;DHT22;4943;52.550;13.462;2023-06-10T00:09:56;19.60;94.30
9808;DHT22;4943;52.550;13.462;2023-06-10T00:12:26;19.50;94.20
9808;DHT22;4943;52.550;13.462;2023-06-10T00:14:55;19.60;94.20
9808;DHT22;4943;52.550;13.462;2023-06-10T00:17:24;19.60;94.10
9808;DHT22;4943;52.550;13.462;2023-06-10T00:19:52;19.60;94.30
9808;DHT22;4943;52.550;13.462;2023-06-10T00:22:20;19.60;94.20
9808;DHT22;4943;52.550;13.462;2023-06-10T00:24:49;19.60;94.20
9808;DHT22;4943;52.550;13.462;2023-06-10T00:27:17;19.60;94.30
9808;DHT22;4943;52.550;13.462;2023-06-10T00:29:47;19.60;94.50
9808;DHT22;4943;52.550;13.462;2023-06-10T00:32:15;19.50;94.40
9808;DHT22;4943;52.550;13.462;2023-06-10T00:34:43;19.40;94.40
9808;DHT22;4943;52.550;13.462;2023-06-10T00:37:11;19.40;94.50
9808;DHT22;4943;52.550;13.462;2023-06-10T00:39:39;19.40;94.60
9808;DHT22;4943;52.550;13.462;2023-06-10T00:42:08;19.40;94.70
9808;DHT22;4943;52.550;13.462;2023-06-10T00:44:37;19.30;94.70
9808;DHT22;4943;52.550;13.462;2023-06-10T00:47:07;19.30;94.70
9808;DHT22;4943;52.550;13.462;2023-06-10T00:49:36;19.30;94.70
9808;DHT22;4943;52.550;13.462;2023-06-10T00:52:05;19.30;94.60
9808;DHT22;4943;52.550;13.462;2023-06-10T00:54:34;19.30;94.70
9808;DHT22;4943;52.550;13.462;2023-06-10T00:57:03;19.20;94.80
9808;DHT22;4943;52.550;13.462;2023-06-10T00:59:32;19.20;94.70
9808;DHT22;4943;52.550;13.462;2023-06-10T01:02:01;19.20;94.80
9808;DHT22;4943;52.550;13.462;2023-06-10T01:04:31;19.20;94.70
9808;DHT22;4943;52.550;13.462;2023-06-10T01:07:12;19.10;94.80
9808;DHT22;4943;52.550;13.462;2023-06-10T01:09:49;19.10;94.90
9808;DHT22;4943;52.550;13.462;2023-06-10T01:12:25;19.10;94.90
9808;DHT22;4943;52.550;13.462;2023-06-10T01:14:55;19.00;94.90
9808;DHT22;4943;52.550;13.462;2023-06-10T01:17:23;19.00;95.10
9808;DHT22;4943;52.550;13.462;2023-06-10T01:19:57;19.00;95.10
9808;DHT22;4943;52.550;13.462;2023-06-10T01:22:27;19.00;95.10
9808;DHT22;4943;52.550;13.462;2023-06-10T01:24:59;19.00;95.10
9808;DHT22;4943;52.550;13.462;2023-06-10T01:27:30;19.00;95.10
9808;DHT22;4943;52.550;13.462;2023-06-10T01:30:08;18.90;95.20
9808;DHT22;4943;52.550;13.462;2023-06-10T01:32:44;18.90;95.40
9808;DHT22;4943;52.550;13.462;2023-06-10T01:35:14;18.80;95.30
9808;DHT22;4943;52.550;13.462;2023-06-10T01:37:46;18.80;95.40
9808;DHT22;4943;52.550;13.462;2023-06-10T01:40:16;18.80;95.50
9808;DHT22;4943;52.550;13.462;2023-06-10T01:42:44;18.80;95.60
9808;DHT22;4943;52.550;13.462;2023-06-10T01:45:12;18.70;95.60
9808;DHT22;4943;52.550;13.462;2023-06-10T01:47:41;18.70;95.60
9808;DHT22;4943;52.550;13.462;2023-06-10T01:50:09;18.70;95.80
9808;DHT22;4943;52.550;13.462;2023-06-10T01:52:38;18.70;95.80
9808;DHT22;4943;52.550;13.462;2023-06-10T01:55:07;18.70;95.70
9808;DHT22;4943;52.550;13.462;2023-06-10T01:57:36;18.70;95.90
9808;DHT22;4943;52.550;13.462;2023-06-10T02:00:06;18.60;96.10
9808;DHT22;4943;52.550;13.462;2023-06-10T02:02:34;18.60;96.00
9808;DHT22;4943;52.550;13.462;2023-06-10T02:05:03;18.50;96.20
9808;DHT22;4943;52.550;13.462;2023-06-10T02:07:32;18.50;96.40
9808;DHT22;4943;52.550;13.462;2023-06-10T02:10:00;18.40;96.50
9808;DHT22;4943;52.550;13.462;2023-06-10T02:12:30;18.40;96.60
9808;DHT22;4943;52.550;13.462;2023-06-10T02:14:58;18.30;96.80
9808;DHT22;4943;52.550;13.462;2023-06-10T02:17:26;18.30;96.70
9808;DHT22;4943;52.550;13.462;2023-06-10T02:19:55;18.30;96.70
9808;DHT22;4943;52.550;13.462;2023-06-10T02:22:23;18.30;96.70
9808;DHT22;4943;52.550;13.462;2023-06-10T02:24:52;18.30;96.90
9808;DHT22;4943;52.550;13.462;2023-06-10T02:27:20;18.30;96.70
9808;DHT22;4943;52.550;13.462;2023-06-10T02:29:50;18.40;96.80
9808;DHT22;4943;52.550;13.462;2023-06-10T02:32:18;18.30;96.80
9808;DHT22;4943;52.550;13.462;2023-06-10T02:34:46;18.30;96.90
9808;DHT22;4943;52.550;13.462;2023-06-10T02:37:16;18.30;96.80
9808;DHT22;4943;52.550;13.462;2023-06-10T02:39:44;18.30;96.80
9808;DHT22;4943;52.550;13.462;2023-06-10T02:42:12;18.30;96.90
9808;DHT22;4943;52.550;13.462;2023-06-10T02:44:40;18.30;97.00
9808;DHT22;4943;52.550;13.462;2023-06-10T02:47:10;18.20;97.00
9808;DHT22;4943;52.550;13.462;2023-06-10T02:49:38;18.20;97.30
9808;DHT22;4943;52.550;13.462;2023-06-10T02:52:07;18.10;97.20
9808;DHT22;4943;52.550;13.462;2023-06-10T02:54:35;18.10;97.30
9808;DHT22;4943;52.550;13.462;2023-06-10T02:57:04;18.10;97.30
9808;DHT22;4943;52.550;13.462;2023-06-10T02:59:33;18.10;97.50
9808;DHT22;4943;52.550;13.462;2023-06-10T03:02:01;18.10;97.40
9808;DHT22;4943;52.550;13.462;2023-06-10T03:04:32;18.10;97.50
9808;DHT22;4943;52.550;13.462;2023-06-10T03:07:00;18.10;97.60
9808;DHT22;4943;52.550;13.462;2023-06-10T03:09:30;18.00;97.70
9808;DHT22;4943;52.550;13.462;2023-06-10T03:11:58;17.90;97.80
9808;DHT22;4943;52.550;13.462;2023-06-10T03:14:27;17.90;97.80
9808;DHT22;4943;52.550;13.462;2023-06-10T03:16:55;18.00;98.00
9808;DHT22;4943;52.550;13.462;2023-06-10T03:19:23;17.90;98.00
9808;DHT22;4943;52.550;13.462;2023-06-10T03:22:07;18.00;98.30
9808;DHT22;4943;52.550;13.462;2023-06-10T03:24:35;18.00;98.10
9808;DHT22;4943;52.550;13.462;2023-06-10T03:27:07;17.90;98.00
9808;DHT22;4943;52.550;13.462;2023-06-10T03:29:36;18.00;98.00
9808;DHT22;4943;52.550;13.462;2023-06-10T03:32:04;18.00;98.00
9808;DHT22;4943;52.550;13.462;2023-06-10T03:34:33;18.00;98.00
9808;DHT22;4943;52.550;13.462;2023-06-10T03:37:03;18.00;98.10
9808;DHT22;4943;52.550;13.462;2023-06-10T03:39:32;18.10;98.10
9808;DHT22;4943;52.550;13.462;2023-06-10T03:42:01;18.10;98.10
9808;DHT22;4943;52.550;13.462;2023-06-10T03:44:29;18.10;98.10
9808;DHT22;4943;52.550;13.462;2023-06-10T03:46:58;18.10;98.00
9808;DHT22;4943;52.550;13.462;2023-06-10T03:49:26;18.10;98.20
9808;DHT22;4943;52.550;13.462;2023-06-10T03:51:57;18.10;98.20
9808;DHT22;4943;52.550;13.462;2023-06-10T03:54:27;18.10;98.50
9808;DHT22;4943;52.550;13.462;2023-06-10T03:56:55;18.10;98.30
9808;DHT22;4943;52.550;13.462;2023-06-10T03:59:23;18.00;98.30
9808;DHT22;4943;52.550;13.462;2023-06-10T04:01:51;18.00;98.30
9808;DHT22;4943;52.550;13.462;2023-06-10T04:04:19;18.00;98.30
9808;DHT22;4943;52.550;13.462;2023-06-10T04:06:48;18.00;98.40
9808;DHT22;4943;52.550;13.462;2023-06-10T04:09:16;18.10;98.30
9808;DHT22;4943;52.550;13.462;2023-06-10T04:11:46;18.10;98.40
9808;DHT22;4943;52.550;13.462;2023-06-10T04:14:15;18.10;98.40
9808;DHT22;4943;52.550;13.462;2023-06-10T04:16:43;18.10;98.40
9808;DHT22;4943;52.550;13.462;2023-06-10T04:19:11;18.10;98.60
9808;DHT22;4943;52.550;13.462;2023-06-10T04:21:39;18.00;98.60
9808;DHT22;4943;52.550;13.462;2023-06-10T04:24:07;18.10;98.70
9808;DHT22;4943;52.550;13.462;2023-06-10T04:26:36;18.10;98.70
9808;DHT22;4943;52.550;13.462;2023-06-10T04:29:05;18.10;98.70
9808;DHT22;4943;52.550;13.462;2023-06-10T04:31:34;18.20;98.70
9808;DHT22;4943;52.550;13.462;2023-06-10T04:34:02;18.30;98.60
9808;DHT22;4943;52.550;13.462;2023-06-10T04:36:30;18.30;98.70
9808;DHT22;4943;52.550;13.462;2023-06-10T04:38:58;18.30;98.60
9808;DHT22;4943;52.550;13.462;2023-06-10T04:41:27;18.30;98.70
9808;DHT22;4943;52.550;13.462;2023-06-10T04:43:55;18.20;98.60
9808;DHT22;4943;52.550;13.462;2023-06-10T04:46:25;18.20;98.70
9808;DHT22;4943;52.550;13.462;2023-06-10T04:48:54;18.30;98.80
9808;DHT22;4943;52.550;13.462;2023-06-10T04:51:22;18.30;98.80
9808;DHT22;4943;52.550;13.462;2023-06-10T04:53:50;18.30;98.80
9808;DHT22;4943;52.550;13.462;2023-06-10T04:56:19;18.30;98.90
9808;DHT22;4943;52.550;13.462;2023-06-10T04:58:48;18.30;99.00
9808;DHT22;4943;52.550;13.462;2023-06-10T05:01:16;18.30;99.10
9808;DHT22;4943;52.550;13.462;2023-06-10T05:03:46;18.40;99.10
9808;DHT22;4943;52.550;13.462;2023-06-10T05:06:14;18.30;99.20
9808;DHT22;4943;52.550;13.462;2023-06-10T05:08:42;18.30;99.30
9808;DHT22;4943;52.550;13.462;2023-06-10T05:11:10;18.40;99.40
9808;DHT22;4943;52.550;13.462;2023-06-10T05:13:38;18.40;99.70
9808;DHT22;4943;52.550;13.462;2023-06-10T05:16:07;18.40;99.80
9808;DHT22;4943;52.550;13.462;2023-06-10T05:18:36;18.50;99.60
9808;DHT22;4943;52.550;13.462;2023-06-10T05:21:05;18.50;99.60
9808;DHT22;4943;52.550;13.462;2023-06-10T05:23:35;18.60;99.80
9808;DHT22;4943;52.550;13.462;2023-06-10T05:26:03;18.70;99.90
9808;DHT22;4943;52.550;13.462;2023-06-10T05:28:31;18.90;99.90
9808;DHT22;4943;52.550;13.462;2023-06-10T05:30:59;19.10;99.90
9808;DHT22;4943;52.550;13.462;2023-06-10T05:33:28;19.30;99.70
9808;DHT22;4943;52.550;13.462;2023-06-10T05:35:56;19.40;99.40
9808;DHT22;4943;52.550;13.462;2023-06-10T05:38:25;19.50;99.40
9808;DHT22;4943;52.550;13.462;2023-06-10T05:40:53;19.50;99.20
9808;DHT22;4943;52.550;13.462;2023-06-10T05:43:23;19.50;99.20
9808;DHT22;4943;52.550;13.462;2023-06-10T05:45:52;19.60;99.20
9808;DHT22;4943;52.550;13.462;2023-06-10T05:48:20;19.60;99.20
9808;DHT22;4943;52.550;13.462;2023-06-10T05:50:49;19.70;99.20
9808;DHT22;4943;52.550;13.462;2023-06-10T05:53:18;19.80;99.20
9808;DHT22;4943;52.550;13.462;2023-06-10T05:55:47;19.80;98.80
9808;DHT22;4943;52.550;13.462;2023-06-10T05:58:15;19.80;98.70
9808;DHT22;4943;52.550;13.462;2023-06-10T06:00:43;19.80;98.70
9808;DHT22;4943;52.550;13.462;2023-06-10T06:03:12;19.90;98.70
9808;DHT22;4943;52.550;13.462;2023-06-10T06:05:40;19.90;98.60
9808;DHT22;4943;52.550;13.462;2023-06-10T06:08:09;20.00;98.70
9808;DHT22;4943;52.550;13.462;2023-06-10T06:10:38;20.10;98.50
9808;DHT22;4943;52.550;13.462;2023-06-10T06:13:07;20.10;98.20
9808;DHT22;4943;52.550;13.462;2023-06-10T06:15:35;20.10;98.20
9808;DHT22;4943;52.550;13.462;2023-06-10T06:18:03;20.00;98.20
9808;DHT22;4943;52.550;13.462;2023-06-10T06:20:32;20.00;98.30
9808;DHT22;4943;52.550;13.462;2023-06-10T06:23:00;20.10;98.30
9808;DHT22;4943;52.550;13.462;2023-06-10T06:25:28;20.10;98.30
9808;DHT22;4943;52.550;13.462;2023-06-10T06:27:56;20.20;98.30
9808;DHT22;4943;52.550;13.462;2023-06-10T06:30:26;20.30;98.30
9808;DHT22;4943;52.550;13.462;2023-06-10T06:32:54;20.40;98.20
9808;DHT22;4943;52.550;13.462;2023-06-10T06:35:23;20.50;98.10
9808;DHT22;4943;52.550;13.462;2023-06-10T06:37:51;20.50;98.10
9808;DHT22;4943;52.550;13.462;2023-06-10T06:40:19;20.60;98.20
9808;DHT22;4943;52.550;13.462;2023-06-10T06:42:47;20.70;98.00
9808;DHT22;4943;52.550;13.462;2023-06-10T06:45:15;20.80;97.90
9808;DHT22;4943;52.550;13.462;2023-06-10T06:47:45;20.90;98.00
9808;DHT22;4943;52.550;13.462;2023-06-10T06:50:13;21.10;98.20
9808;DHT22;4943;52.550;13.462;2023-06-10T06:52:42;21.30;98.20
9808;DHT22;4943;52.550;13.462;2023-06-10T06:55:11;21.50;98.20
9808;DHT22;4943;52.550;13.462;2023-06-10T06:57:39;21.70;98.00
9808;DHT22;4943;52.550;13.462;2023-06-10T07:00:08;21.90;97.70
9808;DHT22;4943;52.550;13.462;2023-06-10T07:02:36;22.00;97.50
9808;DHT22;4943;52.550;13.462;2023-06-10T07:05:07;22.10;97.20
9808;DHT22;4943;52.550;13.462;2023-06-10T07:07:35;22.10;97.10
9808;DHT22;4943;52.550;13.462;2023-06-10T07:10:04;22.20;97.30
9808;DHT22;4943;52.550;13.462;2023-06-10T07:12:33;22.30;97.30
9808;DHT22;4943;52.550;13.462;2023-06-10T07:15:01;22.50;97.30
9808;DHT22;4943;52.550;13.462;2023-06-10T07:17:29;22.60;96.80
9808;DHT22;4943;52.550;13.462;2023-06-10T07:19:57;22.70;96.70
9808;DHT22;4943;52.550;13.462;2023-06-10T07:22:28;22.70;96.50
9808;DHT22;4943;52.550;13.462;2023-06-10T07:24:56;22.70;96.40
9808;DHT22;4943;52.550;13.462;2023-06-10T07:27:24;22.70;96.50
9808;DHT22;4943;52.550;13.462;2023-06-10T07:29:52;22.70;96.20
9808;DHT22;4943;52.550;13.462;2023-06-10T07:32:20;22.70;96.10
9808;DHT22;4943;52.550;13.462;2023-06-10T07:34:50;22.70;96.40
9808;DHT22;4943;52.550;13.462;2023-06-10T07:37:19;22.80;96.50
9808;DHT22;4943;52.550;13.462;2023-06-10T07:39:48;22.80;96.20
9808;DHT22;4943;52.550;13.462;2023-06-10T07:42:17;22.80;95.90
9808;DHT22;4943;52.550;13.462;2023-06-10T07:44:45;22.80;96.00
9808;DHT22;4943;52.550;13.462;2023-06-10T07:47:13;22.80;96.20
9808;DHT22;4943;52.550;13.462;2023-06-10T07:49:41;22.90;96.10
9808;DHT22;4943;52.550;13.462;2023-06-10T07:52:10;23.00;95.80
9808;DHT22;4943;52.550;13.462;2023-06-10T07:54:38;23.10;96.10
9808;DHT22;4943;52.550;13.462;2023-06-10T07:57:07;23.20;96.00
9808;DHT22;4943;52.550;13.462;2023-06-10T07:59:36;23.50;96.20
9808;DHT22;4943;52.550;13.462;2023-06-10T08:02:05;23.70;96.30
9808;DHT22;4943;52.550;13.462;2023-06-10T08:04:33;23.90;96.20
9808;DHT22;4943;52.550;13.462;2023-06-10T08:07:03;24.10;96.00
9808;DHT22;4943;52.550;13.462;2023-06-10T08:09:31;24.10;95.20
9808;DHT22;4943;52.550;13.462;2023-06-10T08:11:59;24.10;95.00
9808;DHT22;4943;52.550;13.462;2023-06-10T08:14:29;24.00;94.80
9808;DHT22;4943;52.550;13.462;2023-06-10T08:16:57;23.90;94.80
9808;DHT22;4943;52.550;13.462;2023-06-10T08:19:26;23.80;94.90
9808;DHT22;4943;52.550;13.462;2023-06-10T08:21:54;23.70;95.00
9808;DHT22;4943;52.550;13.462;2023-06-10T08:24:22;23.80;95.30
9808;DHT22;4943;52.550;13.462;2023-06-10T08:26:52;23.90;95.30
9808;DHT22;4943;52.550;13.462;2023-06-10T08:29:21;23.90;95.30
9808;DHT22;4943;52.550;13.462;2023-06-10T08:31:51;24.00;95.10
9808;DHT22;4943;52.550;13.462;2023-06-10T08:34:19;24.10;95.30
9808;DHT22;4943;52.550;13.462;2023-06-10T08:36:47;24.30;94.80
9808;DHT22;4943;52.550;13.462;2023-06-10T08:39:19;24.30;94.50
9808;DHT22;4943;52.550;13.462;2023-06-10T08:42:00;24.50;94.70
9808;DHT22;4943;52.550;13.462;2023-06-10T08:44:33;24.60;94.90
9808;DHT22;4943;52.550;13.462;2023-06-10T08:47:11;24.60;94.40
9808;DHT22;4943;52.550;13.462;2023-06-10T08:49:44;24.60;94.30
9808;DHT22;4943;52.550;13.462;2023-06-10T08:52:15;24.60;94.20
9808;DHT22;4943;52.550;13.462;2023-06-10T08:54:47;24.50;94.30
9808;DHT22;4943;52.550;13.462;2023-06-10T08:57:18;24.50;94.30
9808;DHT22;4943;52.550;13.462;2023-06-10T08:59:48;24.50;94.50
9808;DHT22;4943;52.550;13.462;2023-06-10T09:02:18;24.40;94.30
9808;DHT22;4943;52.550;13.462;2023-06-10T09:04:48;24.40;94.30
9808;DHT22;4943;52.550;13.462;2023-06-10T09:07:17;24.30;94.30
9808;DHT22;4943;52.550;13.462;2023-06-10T09:09:45;24.20;94.30
9808;DHT22;4943;52.550;13.462;2023-06-10T09:12:15;24.20;94.30
9808;DHT22;4943;52.550;13.462;2023-06-10T09:14:43;24.00;94.10
9808;DHT22;4943;52.550;13.462;2023-06-10T09:17:11;23.80;94.10
9808;DHT22;4943;52.550;13.462;2023-06-10T09:19:41;23.60;94.20
9808;DHT22;4943;52.550;13.462;2023-06-10T09:22:10;23.50;94.30
9808;DHT22;4943;52.550;13.462;2023-06-10T09:24:39;23.30;94.50
9808;DHT22;4943;52.550;13.462;2023-06-10T09:27:08;23.20;94.60
9808;DHT22;4943;52.550;13.462;2023-06-10T09:29:45;23.20;94.80
9808;DHT22;4943;52.550;13.462;2023-06-10T09:32:17;23.20;94.90
9808;DHT22;4943;52.550;13.462;2023-06-10T09:34:48;23.20;95.10
9808;DHT22;4943;52.550;13.462;2023-06-10T09:37:20;23.30;95.20
9808;DHT22;4943;52.550;13.462;2023-06-10T09:40:02;23.30;95.20
9808;DHT22;4943;52.550;13.462;2023-06-10T09:42:33;23.30;95.30
9808;DHT22;4943;52.550;13.462;2023-06-10T09:45:02;23.30;95.20
9808;DHT22;4943;52.550;13.462;2023-06-10T09:47:30;23.30;95.40
9808;DHT22;4943;52.550;13.462;2023-06-10T09:50:00;23.30;95.40
9808;DHT22;4943;52.550;13.462;2023-06-10T09:52:29;23.40;95.50
9808;DHT22;4943;52.550;13.462;2023-06-10T09:55:01;23.50;95.60
9808;DHT22;4943;52.550;13.462;2023-06-10T09:57:31;23.60;95.60
9808;DHT22;4943;52.550;13.462;2023-06-10T10:00:04;23.80;95.40
9808;DHT22;4943;52.550;13.462;2023-06-10T10:02:44;23.80;95.20
9808;DHT22;4943;52.550;13.462;2023-06-10T10:05:15;23.90;95.30
9808;DHT22;4943;52.550;13.462;2023-06-10T10:07:44;23.90;95.20
9808;DHT22;4943;52.550;13.462;2023-06-10T10:10:13;24.00;95.20
9808;DHT22;4943;52.550;13.462;2023-06-10T10:12:42;24.00;95.10
9808;DHT22;4943;52.550;13.462;2023-06-10T10:15:11;24.10;95.20
9808;DHT22;4943;52.550;13.462;2023-06-10T10:17:42;24.20;94.20
9808;DHT22;4943;52.550;13.462;2023-06-10T10:20:16;24.20;93.80
9808;DHT22;4943;52.550;13.462;2023-06-10T10:22:46;24.20;93.40
9808;DHT22;4943;52.550;13.462;2023-06-10T10:25:17;24.20;93.00
9808;DHT22;4943;52.550;13.462;2023-06-10T10:27:51;24.20;92.50
9808;DHT22;4943;52.550;13.462;2023-06-10T10:30:25;24.10;91.60
9808;DHT22;4943;52.550;13.462;2023-06-10T10:32:57;24.10;91.50
9808;DHT22;4943;52.550;13.462;2023-06-10T10:35:28;24.00;91.30
9808;DHT22;4943;52.550;13.462;2023-06-10T10:37:58;23.90;91.30
9808;DHT22;4943;52.550;13.462;2023-06-10T10:40:28;23.90;91.50
9808;DHT22;4943;52.550;13.462;2023-06-10T10:42:58;23.90;91.80
9808;DHT22;4943;52.550;13.462;2023-06-10T10:45:27;23.90;92.10
9808;DHT22;4943;52.550;13.462;2023-06-10T10:47:56;24.00;92.10
9808;DHT22;4943;52.550;13.462;2023-06-10T10:50:30;24.00;91.80
9808;DHT22;4943;52.550;13.462;2023-06-10T10:53:00;24.00;91.50
9808;DHT22;4943;52.550;13.462;2023-06-10T10:55:29;24.00;91.30
9808;DHT22;4943;52.550;13.462;2023-06-10T10:57:58;24.00;91.40
9808;DHT22;4943;52.550;13.462;2023-06-10T11:00:28;24.10;91.50
9808;DHT22;4943;52.550;13.462;2023-06-10T11:02:58;24.30;91.70
9808;DHT22;4943;52.550;13.462;2023-06-10T11:05:36;24.40;91.80
9808;DHT22;4943;52.550;13.462;2023-06-10T11:08:07;24.60;91.80
9808;DHT22;4943;52.550;13.462;2023-06-10T11:10:37;24.80;91.50
9808;DHT22;4943;52.550;13.462;2023-06-10T11:13:07;24.90;91.30
9808;DHT22;4943;52.550;13.462;2023-06-10T11:15:39;25.10;91.60
9808;DHT22;4943;52.550;13.462;2023-06-10T11:18:12;25.40;91.30
9808;DHT22;4943;52.550;13.462;2023-06-10T11:20:59;25.60;91.70
9808;DHT22;4943;52.550;13.462;2023-06-10T11:23:38;26.00;91.20
9808;DHT22;4943;52.550;13.462;2023-06-10T11:26:14;26.20;90.50
9808;DHT22;4943;52.550;13.462;2023-06-10T11:29:07;26.20;89.10
9808;DHT22;4943;52.550;13.462;2023-06-10T11:31:44;26.10;90.50
9808;DHT22;4943;52.550;13.462;2023-06-10T11:34:14;25.90;91.10
9808;DHT22;4943;52.550;13.462;2023-06-10T11:36:44;25.80;91.80
9808;DHT22;4943;52.550;13.462;2023-06-10T11:39:13;25.70;91.70
9808;DHT22;4943;52.550;13.462;2023-06-10T11:41:41;25.60;92.30
9808;DHT22;4943;52.550;13.462;2023-06-10T11:44:11;25.60;92.70
9808;DHT22;4943;52.550;13.462;2023-06-10T11:46:43;25.50;92.80
9808;DHT22;4943;52.550;13.462;2023-06-10T11:49:12;25.50;93.20
9808;DHT22;4943;52.550;13.462;2023-06-10T11:51:41;25.60;93.50
9808;DHT22;4943;52.550;13.462;2023-06-10T11:54:17;25.60;93.60
9808;DHT22;4943;52.550;13.462;2023-06-10T11:56:46;25.60;93.50
9808;DHT22;4943;52.550;13.462;2023-06-10T11:59:14;25.60;93.00
9808;DHT22;4943;52.550;13.462;2023-06-10T12:01:44;25.60;92.90
9808;DHT22;4943;52.550;13.462;2023-06-10T12:04:13;25.60;92.80
9808;DHT22;4943;52.550;13.462;2023-06-10T12:06:43;25.60;92.50
9808;DHT22;4943;52.550;13.462;2023-06-10T12:09:18;25.60;92.50
9808;DHT22;4943;52.550;13.462;2023-06-10T12:11:55;25.70;92.50
9808;DHT22;4943;52.550;13.462;2023-06-10T12:14:49;25.80;92.00
9808;DHT22;4943;52.550;13.462;2023-06-10T12:17:18;25.90;91.40
9808;DHT22;4943;52.550;13.462;2023-06-10T12:19:46;25.90;90.50
9808;DHT22;4943;52.550;13.462;2023-06-10T12:22:15;26.10;90.40
9808;DHT22;4943;52.550;13.462;2023-06-10T12:24:46;26.20;90.40
9808;DHT22;4943;52.550;13.462;2023-06-10T12:27:26;26.40;90.60
9808;DHT22;4943;52.550;13.462;2023-06-10T12:29:57;26.50;89.70
9808;DHT22;4943;52.550;13.462;2023-06-10T12:32:39;26.60;89.60
9808;DHT22;4943;52.550;13.462;2023-06-10T12:35:08;26.60;90.00
9808;DHT22;4943;52.550;13.462;2023-06-10T12:37:38;26.70;90.10
9808;DHT22;4943;52.550;13.462;2023-06-10T12:40:11;26.70;90.40
9808;DHT22;4943;52.550;13.462;2023-06-10T12:42:39;26.90;90.80
9808;DHT22;4943;52.550;13.462;2023-06-10T12:45:09;27.00;90.60
9808;DHT22;4943;52.550;13.462;2023-06-10T12:47:39;27.10;90.90
9808;DHT22;4943;52.550;13.462;2023-06-10T12:50:09;27.10;91.00
9808;DHT22;4943;52.550;13.462;2023-06-10T12:52:39;27.00;91.00
9808;DHT22;4943;52.550;13.462;2023-06-10T12:55:09;27.00;91.30
9808;DHT22;4943;52.550;13.462;2023-06-10T12:57:47;27.10;91.30
9808;DHT22;4943;52.550;13.462;2023-06-10T13:00:17;27.20;91.30
9808;DHT22;4943;52.550;13.462;2023-06-10T13:02:46;27.30;91.40
9808;DHT22;4943;52.550;13.462;2023-06-10T13:05:15;27.30;91.50
9808;DHT22;4943;52.550;13.462;2023-06-10T13:07:44;27.40;91.20
9808;DHT22;4943;52.550;13.462;2023-06-10T13:10:14;27.40;91.00
9808;DHT22;4943;52.550;13.462;2023-06-10T13:12:43;27.40;91.20
9808;DHT22;4943;52.550;13.462;2023-06-10T13:15:14;27.30;90.90
9808;DHT22;4943;52.550;13.462;2023-06-10T13:17:43;27.30;90.70
9808;DHT22;4943;52.550;13.462;2023-06-10T13:20:13;27.30;90.90
9808;DHT22;4943;52.550;13.462;2023-06-10T13:22:41;27.30;91.10
9808;DHT22;4943;52.550;13.462;2023-06-10T13:25:10;27.40;91.20
9808;DHT22;4943;52.550;13.462;2023-06-10T13:27:40;27.40;90.80
9808;DHT22;4943;52.550;13.462;2023-06-10T13:30:10;27.40;90.80
9808;DHT22;4943;52.550;13.462;2023-06-10T13:32:39;27.40;90.90
9808;DHT22;4943;52.550;13.462;2023-06-10T13:35:08;27.40;90.80
9808;DHT22;4943;52.550;13.462;2023-06-10T13:37:37;27.50;90.90
9808;DHT22;4943;52.550;13.462;2023-06-10T13:40:06;27.60;90.40
9808;DHT22;4943;52.550;13.462;2023-06-10T13:42:36;27.60;90.30
9808;DHT22;4943;52.550;13.462;2023-06-10T13:45:07;27.70;90.50
9808;DHT22;4943;52.550;13.462;2023-06-10T13:47:36;27.70;90.30
9808;DHT22;4943;52.550;13.462;2023-06-10T13:50:06;27.70;90.10
9808;DHT22;4943;52.550;13.462;2023-06-10T13:52:35;27.70;90.30
9808;DHT22;4943;52.550;13.462;2023-06-10T13:55:04;27.70;90.40
9808;DHT22;4943;52.550;13.462;2023-06-10T13:57:32;27.80;90.40
9808;DHT22;4943;52.550;13.462;2023-06-10T14:00:00;27.80;90.40
9808;DHT22;4943;52.550;13.462;2023-06-10T14:02:30;27.80;90.40
9808;DHT22;4943;52.550;13.462;2023-06-10T14:04:58;27.90;90.10
9808;DHT22;4943;52.550;13.462;2023-06-10T14:07:26;27.90;87.90
9808;DHT22;4943;52.550;13.462;2023-06-10T14:09:55;27.90;84.80
9808;DHT22;4943;52.550;13.462;2023-06-10T14:12:23;27.90;83.60
9808;DHT22;4943;52.550;13.462;2023-06-10T14:14:51;28.00;82.80
9808;DHT22;4943;52.550;13.462;2023-06-10T14:17:21;28.00;82.50
9808;DHT22;4943;52.550;13.462;2023-06-10T14:19:51;28.00;83.40
9808;DHT22;4943;52.550;13.462;2023-06-10T14:22:19;28.10;83.20
9808;DHT22;4943;52.550;13.462;2023-06-10T14:24:48;28.10;82.80
9808;DHT22;4943;52.550;13.462;2023-06-10T14:27:16;28.20;82.60
9808;DHT22;4943;52.550;13.462;2023-06-10T14:29:44;28.30;82.00
9808;DHT22;4943;52.550;13.462;2023-06-10T14:32:12;28.50;82.80
9808;DHT22;4943;52.550;13.462;2023-06-10T14:34:41;28.60;82.70
9808;DHT22;4943;52.550;13.462;2023-06-10T14:37:12;28.70;82.90
9808;DHT22;4943;52.550;13.462;2023-06-10T14:39:41;28.70;81.40
9808;DHT22;4943;52.550;13.462;2023-06-10T14:42:09;28.80;80.60
9808;DHT22;4943;52.550;13.462;2023-06-10T14:44:37;28.90;80.80
9808;DHT22;4943;52.550;13.462;2023-06-10T14:47:06;29.00;80.50
9808;DHT22;4943;52.550;13.462;2023-06-10T14:49:34;29.10;79.30
9808;DHT22;4943;52.550;13.462;2023-06-10T14:52:03;29.20;77.90
9808;DHT22;4943;52.550;13.462;2023-06-10T14:54:32;29.40;77.90
9808;DHT22;4943;52.550;13.462;2023-06-10T14:57:01;29.60;77.50
9808;DHT22;4943;52.550;13.462;2023-06-10T14:59:29;29.70;76.20
9808;DHT22;4943;52.550;13.462;2023-06-10T15:01:58;29.80;76.50
9808;DHT22;4943;52.550;13.462;2023-06-10T15:04:27;29.90;77.90
9808;DHT22;4943;52.550;13.462;2023-06-10T15:06:56;30.00;75.70
9808;DHT22;4943;52.550;13.462;2023-06-10T15:09:25;30.20;76.50
9808;DHT22;4943;52.550;13.462;2023-06-10T15:11:54;30.40;75.80
9808;DHT22;4943;52.550;13.462;2023-06-10T15:14:23;30.60;75.80
9808;DHT22;4943;52.550;13.462;2023-06-10T15:16:51;30.80;74.40
9808;DHT22;4943;52.550;13.462;2023-06-10T15:19:19;31.00;74.20
9808;DHT22;4943;52.550;13.462;2023-06-10T15:21:47;31.10;74.00
9808;DHT22;4943;52.550;13.462;2023-06-10T15:24:16;31.20;73.60
9808;DHT22;4943;52.550;13.462;2023-06-10T15:26:44;31.30;72.60
9808;DHT22;4943;52.550;13.462;2023-06-10T15:29:13;31.30;72.00
9808;DHT22;4943;52.550;13.462;2023-06-10T15:31:42;31.30;71.30
9808;DHT22;4943;52.550;13.462;2023-06-10T15:34:10;31.30;71.70
9808;DHT22;4943;52.550;13.462;2023-06-10T15:36:38;31.40;71.60
9808;DHT22;4943;52.550;13.462;2023-06-10T15:39:07;31.50;71.70
9808;DHT22;4943;52.550;13.462;2023-06-10T15:41:35;31.50;71.00
9808;DHT22;4943;52.550;13.462;2023-06-10T15:44:03;31.40;70.90
9808;DHT22;4943;52.550;13.462;2023-06-10T15:46:33;31.20;71.80
9808;DHT22;4943;52.550;13.462;2023-06-10T15:49:02;31.10;72.30
9808;DHT22;4943;52.550;13.462;2023-06-10T15:51:30;31.00;72.80
9808;DHT22;4943;52.550;13.462;2023-06-10T15:53:58;31.00;73.40
9808;DHT22;4943;52.550;13.462;2023-06-10T15:56:27;30.90;73.70
9808;DHT22;4943;52.550;13.462;2023-06-10T15:58:55;31.00;73.60